Latest Coastal Weather Observations for Cape Jaffa

IDS60701

Issued at 2:45 am CST Sunday 24 August 2014 (issued every 10 minutes, with the page automatically refreshed every 10 minutes)

About coastal observations | Map of coastal stations | Coastal observations for SA | Marine services | Other Formats
Station Details ID: 026095 Name: THE LIMESTONE Lat: -36.97 Lon: 139.72 Height: 17.0 m
Data from the previous 72 hours. | See also: Recent months at Cape Jaffa
Date/Time
CST
Temp

°C
Wind Pressure Rain
since 9am
mm
Weather Cloud Vis
km
Sea
Height
m
Swell
Dir
 
Speed
knots
Gust
knots
hPa Trend Height
m
Period
s
Dir
24/02:30am 11.5 WSW 16 20 1026.0 - 1.8 - - - - - - -
24/02:00am 12.1 WSW 15 19 1026.1 - 1.8 - - - - - - -
24/01:30am 11.8 WSW 13 17 1026.1 - 1.8 - - - - - - -
24/01:00am 12.3 WSW 14 21 1026.0 - 1.8 - - - - - - -
24/12:30am 12.3 W 15 20 1026.1 - 1.8 - - - - - - -
24/12:00am 12.0 W 15 18 1026.0 - 1.8 - - - - - - -
 
Date/Time
CST
Temp

°C
Wind Pressure Rain
since 9am
mm
Weather Cloud Vis
km
Sea
Height
m
Swell
Dir
 
Speed
knots
Gust
knots
hPa Trend Height
m
Period
s
Dir
23/11:30pm 11.9 WSW 13 18 1026.0 - 1.8 - - - - - - -
23/11:00pm 12.1 W 14 18 1025.8 - 1.8 - - - - - - -
23/10:30pm 12.0 WSW 12 16 1025.8 - 1.8 - - - - - - -
23/10:00pm 12.2 W 13 17 1025.6 - 1.8 - - - - - - -
23/09:30pm 12.2 WSW 14 18 1025.6 - 1.8 - - - - - - -
23/09:00pm 12.5 W 13 19 1025.4 - 1.8 - - - - - - -
23/08:30pm 12.7 W 14 19 1025.1 - 1.8 - - - - - - -
23/08:00pm 12.7 WSW 13 18 1024.8 - 1.8 - - - - - - -
23/07:30pm 12.8 W 12 17 1024.1 - 1.8 - - - - - - -
23/07:00pm 12.7 WSW 14 19 1023.7 - 1.8 - - - - - - -
23/06:30pm 12.7 W 14 18 1023.8 - 1.8 - - - - - - -
23/06:00pm 12.7 W 11 15 1023.4 - 1.8 - - - - - - -
23/05:30pm 13.0 WNW 14 19 1022.9 - 1.8 - - - - - - -
23/05:00pm 13.6 W 15 21 1022.6 - 1.8 - - - - - - -
23/04:30pm 13.7 WNW 14 20 1022.3 - 1.8 - - - - - - -
23/04:00pm 14.2 WNW 14 19 1021.9 - 1.8 - - - - - - -
23/03:30pm 14.2 WNW 18 26 1021.6 - 1.8 - - - - - - -
23/03:00pm 14.5 NW 17 24 1021.5 - 1.8 - - - - - - -
23/02:30pm 14.3 NW 16 23 1021.3 - 1.8 - - - - - - -
23/02:26pm 14.9 NW 16 26 1021.2 - 1.8 - - - - - - -
23/02:00pm 15.4 NW 17 23 1021.0 - 1.8 - - - - - - -
23/01:30pm 13.1 N 16 23 1021.0 - 1.8 - - - - - - -
23/01:00pm 12.2 N 12 16 1021.2 - 1.8 - - - - - - -
23/12:30pm 12.2 NNW 11 15 1021.4 - 1.6 - - - - - - -
23/12:00pm 12.1 NW 10 13 1021.7 - 1.0 Rain - - - - - -
23/11:30am 11.6 WNW 13 17 1021.9 - 0.4 - - - - - - -
23/11:05am 12.7 NW 22 32 1021.7 - 0.0 - - - - - - -
23/11:01am 14.2 NNW 21 32 1021.4 - 0.0 - - - - - - -
23/11:00am 14.5 NNW 21 29 1021.3 - 0.0 - - - - - - -
23/10:30am 14.8 N 18 25 1020.8 - 0.0 - - - - - - -
23/10:00am 14.7 N 21 26 1020.5 - 0.0 - - - - - - -
23/09:30am 14.0 N 18 23 1020.4 - 0.0 - - - - - - -
23/09:00am 13.6 NNE 18 23 1020.3 - 0.0 - - - - - - -
23/08:30am 13.2 NNE 17 25 1020.5 - 0.0 - - - - - - -
23/08:00am 12.8 NNE 19 24 1020.7 - 0.0 - - - - - - -
23/07:30am 12.5 NNE 18 24 1020.7 - 0.0 - - - - - - -
23/07:00am 12.8 NNE 18 24 1020.7 - 0.0 - - - - - - -
23/06:30am 12.3 NE 16 22 1020.7 - 0.0 - - - - - - -
23/06:00am 11.6 NNE 12 16 1021.0 - 0.0 - - - - - - -
23/05:30am 11.7 NE 13 16 1020.9 - 0.0 - - - - - - -
23/05:00am 11.4 NNE 14 19 1020.8 - 0.0 - - - - - - -
23/04:30am 11.0 NE 13 16 1021.0 - 0.0 - - - - - - -
23/04:00am 10.7 NE 12 15 1021.2 - 0.0 - - - - - - -
23/03:30am 9.7 NE 11 13 1021.4 - 0.0 - - - - - - -
23/03:00am 8.5 NE 10 11 1021.5 - 0.0 - - - - - - -
23/02:30am 7.7 ENE 10 12 1021.8 - 0.0 - - - - - - -
23/02:00am 7.0 ENE 10 12 1022.1 - 0.0 - - - - - - -
23/01:30am 6.8 ENE 10 11 1022.4 - 0.0 - - - - - - -
23/01:00am 7.1 ENE 10 12 1022.4 - 0.0 - - - - - - -
23/12:30am 7.3 NE 10 11 1022.7 - 0.0 - - - - - - -
23/12:00am 7.7 NE 10 11 1022.7 - 0.0 - - - - - - -
 
Date/Time
CST
Temp

°C
Wind Pressure Rain
since 9am
mm
Weather Cloud Vis
km
Sea
Height
m
Swell
Dir
 
Speed
knots
Gust
knots
hPa Trend Height
m
Period
s
Dir
22/11:30pm 8.0 NE 10 12 1022.9 - 0.0 - - - - - - -
22/11:00pm 8.0 NE 10 11 1023.1 - 0.0 - - - - - - -
22/10:30pm 7.6 NE 9 10 1023.4 - 0.0 - - - - - - -
22/10:00pm 8.0 ENE 10 11 1023.6 - 0.0 - - - - - - -
22/09:30pm 8.7 ENE 9 10 1023.8 - 0.0 - - - - - - -
22/09:00pm 9.9 ENE 9 11 1023.9 - 0.0 - - - - - - -
22/08:30pm 10.1 ENE 8 9 1024.0 - 0.0 - - - - - - -
22/08:00pm 10.3 E 8 9 1024.0 - 0.0 - - - - - - -
22/07:30pm 11.6 ENE 7 9 1023.8 - 0.0 - - - - - - -
22/07:00pm 12.4 NE 4 6 1023.9 - 0.0 - - - - - - -
22/06:30pm 12.7 NE 6 7 1023.6 - 0.0 - - - - - - -
22/06:00pm 13.4 NNE 7 8 1023.2 - 0.0 - - - - - - -
22/05:30pm 14.9 NNE 7 8 1023.1 - 0.0 - - - - - - -
22/05:00pm 16.2 NNE 4 5 1023.2 - 0.0 - - - - - - -
22/04:30pm 17.4 N 4 5 1023.2 - 0.0 - - - - - - -
22/04:00pm 18.0 N 7 9 1023.0 - 0.0 - - - - - - -
22/03:30pm 18.1 N 9 11 1023.4 - 0.0 - - - - - - -
22/03:00pm 18.0 N 9 12 1023.6 - 0.0 - - - - - - -
22/02:30pm 18.3 N 10 13 1024.1 - 0.0 - - - - - - -
22/02:00pm 18.2 N 12 16 1024.5 - 0.0 - - - - - - -
22/01:30pm 18.5 NNE 14 19 1024.7 - 0.0 - - - - - - -
22/01:00pm 18.0 N 15 20 1025.1 - 0.0 - - - - - - -
22/12:30pm 18.0 N 14 17 1025.6 - 0.0 - - - - - - -
22/12:00pm 17.3 NNE 15 19 1025.9 - 0.0 - - - - - - -
22/11:30am 16.4 N 16 19 1026.4 - 0.0 - - - - - - -
22/11:00am 15.1 N 16 21 1026.6 - 0.0 - - - - - - -
22/10:30am 14.3 N 16 20 1026.8 - 0.0 - - - - - - -
22/10:00am 14.0 NNE 12 16 1026.9 - 0.0 - - - - - - -
22/09:30am 13.1 NNE 11 15 1027.2 - 0.0 - - - - - - -
22/09:00am 12.2 NNE 9 13 1027.5 - 0.0 - - - - - - -
22/08:30am 10.1 NE 6 8 1027.5 - 0.0 - - - - - - -
22/08:00am 8.9 ENE 8 9 1027.2 - 0.0 - - - - - - -
22/07:30am 8.6 ENE 9 11 1026.8 - 0.0 - - - - - - -
22/07:00am 8.5 ENE 9 11 1026.4 - 0.0 - - - - - - -
22/06:30am 8.1 ENE 8 11 1026.2 - 0.0 - - - - - - -
22/06:00am 7.6 ENE 9 11 1026.0 - 0.0 - - - - - - -
22/05:30am 7.4 ENE 8 9 1025.9 - 0.0 - - - - - - -
22/05:00am 7.3 ENE 9 11 1025.8 - 0.0 - - - - - - -
22/04:30am 6.9 ENE 8 10 1025.7 - 0.0 - - - - - - -
22/04:00am 6.8 ENE 9 11 1025.6 - 0.0 - - - - - - -
22/03:30am 6.6 ENE 8 10 1025.7 - 0.0 - - - - - - -
22/03:00am 5.3 ENE 9 10 1025.9 - 0.0 - - - - - - -
22/02:30am 5.8 ENE 8 9 1026.1 - 0.0 - - - - - - -
22/02:00am 6.4 ENE 8 10 1026.3 - 0.0 - - - - - - -
22/01:30am 6.3 ENE 8 9 1026.6 - 0.0 - - - - - - -
22/01:00am 6.4 ENE 8 10 1026.9 - 0.0 - - - - - - -
22/12:30am 6.4 E 8 10 1026.7 - 0.0 - - - - - - -
22/12:00am 5.9 E 8 9 1026.7 - 0.0 - - - - - - -
 
Date/Time
CST
Temp

°C
Wind Pressure Rain
since 9am
mm
Weather Cloud Vis
km
Sea
Height
m
Swell
Dir
 
Speed
knots
Gust
knots
hPa Trend Height
m
Period
s
Dir
21/11:30pm 6.6 E 7 8 1026.9 - 0.0 - - - - - - -
21/11:00pm 6.9 E 7 8 1026.9 - 0.0 - - - - - - -
21/10:30pm 7.1 E 7 8 1027.0 - 0.0 - - - - - - -
21/10:00pm 6.7 E 7 8 1027.1 - 0.0 - - - - - - -
21/09:30pm 7.3 E 8 8 1027.0 - 0.0 - - - - - - -
21/09:00pm 7.3 E 7 8 1027.0 - 0.0 - - - - - - -
21/08:30pm 7.8 E 7 7 1026.8 - 0.0 - - - - - - -
21/08:00pm 7.8 ESE 6 6 1026.9 - 0.0 - - - - - - -
21/07:30pm 7.9 SE 5 5 1026.8 - 0.0 - - - - - - -
21/07:00pm 8.7 SE 5 5 1026.8 - 0.0 - - - - - - -
21/06:30pm 8.8 ESE 6 6 1026.5 - 0.0 - - - - - - -
21/06:00pm 9.6 SE 5 6 1026.3 - 0.0 - - - - - - -
21/05:30pm 11.8 E 4 5 1026.0 - 0.0 - - - - - - -
21/05:00pm 12.7 ENE 3 4 1025.8 - 0.0 - - - - - - -
21/04:30pm 13.6 ENE 3 4 1025.6 - 0.0 - - - - - - -
21/04:00pm 13.7 NNE 2 4 1025.7 - 0.0 - - - - - - -
21/03:30pm 13.2 N 5 7 1025.7 - 0.0 - - - - - - -
21/03:00pm 13.4 N 5 7 1025.8 - 0.0 - - - - - - -
21/02:30pm 13.4 N 5 7 1025.8 - 0.0 - - - - - - -
21/02:00pm 13.1 N 6 9 1025.9 - 0.0 - - - - - - -
21/01:30pm 12.9 N 7 10 1026.1 - 0.0 - - - - - - -
21/01:00pm 13.4 N 5 8 1026.6 - 0.0 - - - - - - -
21/12:30pm 12.6 N 8 11 1027.0 - 0.0 - - - - - - -
21/12:00pm 12.5 NE 4 9 1027.5 - 0.0 - - - - - - -
21/11:30am 12.5 NE 5 8 1027.8 - 0.0 - - - - - - -
21/11:00am 11.8 N 4 7 1028.2 - 0.0 - - - - - - -
21/10:30am 11.3 N 6 8 1028.3 - 0.0 - - - - - - -
21/10:00am 11.2 NNE 4 5 1028.4 - 0.0 - - - - - - -
21/09:30am 10.9 ENE 3 5 1028.6 - 0.0 - - - - - - -
21/09:00am 8.9 E 3 5 1028.7 - 0.0 - - - - - - -
21/08:30am 7.7 ENE 2 4 1028.5 - 0.0 - - - - - - -
21/08:00am 7.3 E 4 5 1028.4 - 0.0 - - - - - - -
21/07:30am 6.6 ESE 5 6 1028.4 - 0.0 - - - - - - -
21/07:00am 6.5 E 5 6 1028.3 - 0.0 - - - - - - -
21/06:30am 6.3 ESE 5 6 1028.0 - 0.0 - - - - - - -
21/06:00am 6.2 ESE 5 6 1027.7 - 0.0 - - - - - - -
21/05:30am 6.5 E 4 6 1027.6 - 0.0 - - - - - - -
21/05:00am 6.7 ESE 4 5 1027.5 - 0.0 - - - - - - -
21/04:30am 6.6 ESE 4 5 1027.6 - 0.0 - - - - - - -
21/04:00am 6.4 ESE 5 6 1027.5 - 0.0 - - - - - - -
21/03:30am 5.6 ESE 6 7 1027.5 - 0.0 - - - - - - -
21/03:00am 5.8 ESE 6 6 1027.6 - 0.0 - - - - - - -

Other Formats:

Comma delimited format used in spreadsheet applications
http://www.bom.gov.au/fwo/IDS60701/IDS60701.94813.axf

JavaScript Object Notation format (JSON) in row-major order
http://www.bom.gov.au/fwo/IDS60701/IDS60701.94813.json